createdAt,value
2023-01-21T00:01:29.329Z,101067.34
2023-01-21T00:03:58.128Z,101072.00
2023-01-21T00:06:27.601Z,101071.84
2023-01-21T00:09:00.943Z,101074.88
2023-01-21T00:11:29.706Z,101083.31
2023-01-21T00:14:00.120Z,101083.69
2023-01-21T00:16:28.821Z,101080.47
2023-01-21T00:18:57.577Z,101082.28
2023-01-21T00:21:28.536Z,101090.28
2023-01-21T00:23:59.742Z,101087.72
2023-01-21T00:26:28.366Z,101092.44
2023-01-21T00:28:57.453Z,101092.91
2023-01-21T00:31:26.230Z,101097.88
2023-01-21T00:33:54.712Z,101101.84
2023-01-21T00:36:25.066Z,101108.78
2023-01-21T00:38:53.554Z,101099.56
2023-01-21T00:41:24.756Z,101108.78
2023-01-21T00:43:54.047Z,101117.72
2023-01-21T00:46:22.559Z,101114.53
2023-01-21T00:48:51.812Z,101121.22
2023-01-21T00:51:20.154Z,101119.25
2023-01-21T00:53:49.690Z,101120.00
2023-01-21T00:56:31.306Z,101128.91
2023-01-21T00:59:01.776Z,101129.97
2023-01-21T01:01:34.507Z,101132.41
2023-01-21T01:04:02.947Z,101144.25
2023-01-21T01:06:31.169Z,101141.53
2023-01-21T01:09:00.026Z,101146.97
2023-01-21T01:11:30.653Z,101153.31
2023-01-21T01:14:02.691Z,101154.22
2023-01-21T01:16:32.782Z,101145.00
2023-01-21T01:19:01.215Z,101162.13
2023-01-21T01:21:29.388Z,101164.56
2023-01-21T01:24:05.879Z,101165.78
2023-01-21T01:26:35.672Z,101170.03
2023-01-21T01:29:06.032Z,101175.00
2023-01-21T01:31:34.887Z,101178.75
2023-01-21T01:34:03.325Z,101185.00
2023-01-21T01:36:34.129Z,101181.78
2023-01-21T01:39:04.543Z,101184.50
2023-01-21T01:41:35.259Z,101183.47
2023-01-21T01:44:07.588Z,101188.47
2023-01-21T01:46:39.374Z,101195.81
2023-01-21T01:49:13.524Z,101193.09
2023-01-21T01:51:47.628Z,101192.81
2023-01-21T01:54:21.360Z,101192.34
2023-01-21T01:56:53.305Z,101188.41
2023-01-21T01:59:23.216Z,101194.38
2023-01-21T02:01:52.419Z,101201.41
2023-01-21T02:04:25.034Z,101197.44
2023-01-21T02:06:56.161Z,101199.59
2023-01-21T02:09:29.685Z,101198.38
2023-01-21T02:11:59.366Z,101182.88
2023-01-21T02:14:29.592Z,101199.53
2023-01-21T02:17:14.460Z,101196.84
2023-01-21T02:19:57.296Z,101192.34
2023-01-21T02:22:30.516Z,101201.91
2023-01-21T02:25:41.486Z,101191.94
2023-01-21T02:28:32.801Z,101200.88
2023-01-21T02:31:21.030Z,101192.13
2023-01-21T02:34:14.922Z,101201.00
2023-01-21T02:36:55.850Z,101204.19
2023-01-21T02:39:33.041Z,101207.44
2023-01-21T02:42:06.753Z,101208.66
2023-01-21T02:44:41.680Z,101212.25
2023-01-21T02:47:25.304Z,101219.66
2023-01-21T02:49:59.227Z,101218.94
2023-01-21T02:52:28.253Z,101222.47
2023-01-21T02:54:59.023Z,101226.31
2023-01-21T02:57:38.058Z,101216.38
2023-01-21T03:00:12.053Z,101222.94
2023-01-21T03:02:58.830Z,101231.16
2023-01-21T03:05:42.395Z,101231.16
2023-01-21T03:08:17.793Z,101237.38
2023-01-21T03:10:56.288Z,101229.66
2023-01-21T03:13:52.061Z,101236.94
2023-01-21T03:16:43.064Z,101245.25
2023-01-21T03:19:15.764Z,101241.94
2023-01-21T03:21:47.155Z,101251.97
2023-01-21T03:24:15.956Z,101242.31
2023-01-21T03:26:51.167Z,101248.47
2023-01-21T03:29:27.788Z,101254.75
2023-01-21T03:32:01.909Z,101262.72
2023-01-21T03:34:34.155Z,101262.56
2023-01-21T03:37:08.649Z,101265.28
2023-01-21T03:39:46.937Z,101274.63
2023-01-21T03:42:16.469Z,101271.59
2023-01-21T03:44:45.150Z,101269.84
2023-01-21T03:47:21.973Z,101275.59
2023-01-21T03:49:54.826Z,101280.00
2023-01-21T03:52:26.349Z,101277.56
2023-01-21T03:54:55.050Z,101287.09
2023-01-21T03:57:23.436Z,101284.63
2023-01-21T03:59:52.095Z,101291.03
2023-01-21T04:02:22.727Z,101281.69
2023-01-21T04:04:53.115Z,101292.72
2023-01-21T04:07:24.645Z,101289.88
2023-01-21T04:09:53.171Z,101300.66
2023-01-21T04:12:21.978Z,101294.50
2023-01-21T04:14:50.575Z,101303.31
2023-01-21T04:17:20.591Z,101295.59
2023-01-21T04:19:49.815Z,101303.03
2023-01-21T04:22:18.297Z,101288.50
2023-01-21T04:24:48.060Z,101295.63
2023-01-21T04:27:16.536Z,101297.75
2023-01-21T04:29:44.795Z,101302.72
2023-01-21T04:32:13.221Z,101317.81
2023-01-21T04:34:42.576Z,101322.38
2023-01-21T04:37:10.829Z,101327.94
2023-01-21T04:39:39.438Z,101334.47
2023-01-21T04:42:09.054Z,101329.03
2023-01-21T04:44:37.903Z,101337.16
2023-01-21T04:47:06.738Z,101332.63
2023-01-21T04:49:35.671Z,101331.09
2023-01-21T04:52:03.879Z,101333.00
2023-01-21T04:54:32.910Z,101335.25
2023-01-21T04:57:01.235Z,101337.31
2023-01-21T04:59:31.330Z,101343.50
2023-01-21T05:01:59.865Z,101335.94
2023-01-21T05:04:39.241Z,101342.81
2023-01-21T05:07:08.454Z,101343.78
2023-01-21T05:09:37.028Z,101345.97
2023-01-21T05:12:05.823Z,101341.41
2023-01-21T05:14:37.452Z,101352.56
2023-01-21T05:17:05.975Z,101357.34
2023-01-21T05:19:34.535Z,101368.19
2023-01-21T05:22:03.280Z,101361.13
2023-01-21T05:24:32.336Z,101361.34
2023-01-21T05:27:01.741Z,101361.44
2023-01-21T05:29:30.725Z,101365.13
2023-01-21T05:32:00.925Z,101357.47
2023-01-21T05:34:29.244Z,101371.72
2023-01-21T05:36:58.128Z,101365.94
2023-01-21T05:39:27.123Z,101369.84
2023-01-21T05:41:55.810Z,101372.47
2023-01-21T05:44:24.573Z,101370.53
2023-01-21T05:46:55.913Z,101378.03
2023-01-21T05:49:26.877Z,101379.19
2023-01-21T05:51:55.241Z,101382.25
2023-01-21T05:54:24.565Z,101388.91
2023-01-21T05:56:54.538Z,101384.38
2023-01-21T05:59:22.739Z,101387.09
2023-01-21T06:01:53.185Z,101387.03
2023-01-21T06:04:23.921Z,101391.47
2023-01-21T06:06:53.721Z,101401.28
2023-01-21T06:09:23.332Z,101416.59
2023-01-21T06:11:51.548Z,101421.06
2023-01-21T06:14:19.831Z,101425.97
2023-01-21T06:16:48.396Z,101428.72
2023-01-21T06:19:16.963Z,101433.16
2023-01-21T06:21:48.312Z,101437.91
2023-01-21T06:24:18.064Z,101429.50
2023-01-21T06:26:46.789Z,101436.88
2023-01-21T06:29:15.517Z,101443.03
2023-01-21T06:31:45.892Z,101442.94
2023-01-21T06:34:14.422Z,101453.63
2023-01-21T06:36:44.449Z,101459.56
2023-01-21T06:39:13.164Z,101457.78
2023-01-21T06:41:42.833Z,101467.44
2023-01-21T06:44:10.908Z,101475.78
2023-01-21T06:46:43.332Z,101470.38
2023-01-21T06:49:16.169Z,101471.38
2023-01-21T06:51:44.725Z,101469.69
2023-01-21T06:54:14.019Z,101476.84
2023-01-21T06:56:46.287Z,101479.56
2023-01-21T06:59:14.764Z,101478.59
2023-01-21T07:01:43.032Z,101480.66
2023-01-21T07:04:12.519Z,101483.16
2023-01-21T07:06:41.137Z,101485.88
2023-01-21T07:09:09.847Z,101487.91
2023-01-21T07:11:39.682Z,101491.63
2023-01-21T07:14:09.825Z,101500.41
2023-01-21T07:16:38.109Z,101500.09
2023-01-21T07:19:06.838Z,101503.34
2023-01-21T07:21:35.023Z,101509.41
2023-01-21T07:24:03.478Z,101506.38
2023-01-21T07:26:36.112Z,101517.47
2023-01-21T07:29:07.774Z,101504.31
2023-01-21T07:31:42.991Z,101509.09
2023-01-21T07:34:11.453Z,101503.47
2023-01-21T07:36:42.184Z,101510.84
2023-01-21T07:39:14.008Z,101506.38
2023-01-21T07:41:46.643Z,101523.00
2023-01-21T07:44:23.862Z,101526.25
2023-01-21T07:46:55.672Z,101524.72
2023-01-21T07:49:25.383Z,101530.47
2023-01-21T07:51:58.718Z,101540.66
2023-01-21T07:54:27.379Z,101537.44
2023-01-21T07:56:56.041Z,101540.66
2023-01-21T07:59:26.693Z,101548.28
2023-01-21T08:01:57.948Z,101547.94
2023-01-21T08:04:26.484Z,101538.72
2023-01-21T08:06:56.952Z,101550.00
2023-01-21T08:09:27.258Z,101553.38
2023-01-21T08:11:57.729Z,101545.91
2023-01-21T08:14:27.237Z,101546.88
2023-01-21T08:16:59.363Z,101543.19
2023-01-21T08:19:33.311Z,101545.66
2023-01-21T08:22:05.623Z,101546.09
2023-01-21T08:24:35.272Z,101541.63
2023-01-21T08:27:03.493Z,101551.53
2023-01-21T08:29:31.755Z,101550.44
2023-01-21T08:32:01.747Z,101544.78
2023-01-21T08:34:31.245Z,101552.69
2023-01-21T08:36:59.810Z,101565.16
2023-01-21T08:39:31.399Z,101553.28
2023-01-21T08:41:59.630Z,101556.91
2023-01-21T08:44:28.066Z,101560.22
2023-01-21T08:46:58.684Z,101566.69
2023-01-21T08:49:28.499Z,101560.66
2023-01-21T08:51:57.225Z,101564.38
2023-01-21T08:54:27.480Z,101567.16
2023-01-21T08:56:56.026Z,101569.94
2023-01-21T08:59:28.645Z,101573.81
2023-01-21T09:01:57.667Z,101577.25
2023-01-21T09:04:27.997Z,101578.84
2023-01-21T09:06:58.715Z,101580.97
2023-01-21T09:09:28.191Z,101584.00
2023-01-21T09:11:56.479Z,101583.53
2023-01-21T09:14:24.854Z,101585.53
2023-01-21T09:16:55.861Z,101593.38
2023-01-21T09:19:33.916Z,101595.81
2023-01-21T09:22:03.979Z,101589.03
2023-01-21T09:24:33.081Z,101597.00
2023-01-21T09:27:01.791Z,101600.25
2023-01-21T09:29:30.198Z,101604.66
2023-01-21T09:31:58.911Z,101605.91
2023-01-21T09:34:28.029Z,101608.84
2023-01-21T09:36:57.954Z,101609.22
2023-01-21T09:39:27.990Z,101606.38
2023-01-21T09:41:58.678Z,101610.81
2023-01-21T09:44:32.645Z,101611.09
2023-01-21T09:47:05.829Z,101608.69
2023-01-21T09:49:39.348Z,101619.34
2023-01-21T09:52:15.991Z,101613.59
2023-01-21T09:54:46.617Z,101606.50
2023-01-21T09:57:36.480Z,101609.09
2023-01-21T10:00:31.368Z,101618.66
2023-01-21T10:03:17.135Z,101618.50
2023-01-21T10:05:59.417Z,101612.31
2023-01-21T10:08:36.476Z,101617.91
2023-01-21T10:11:30.007Z,101619.72
2023-01-21T10:14:31.009Z,101623.22
2023-01-21T10:17:07.816Z,101613.19
2023-01-21T10:19:44.385Z,101616.84
2023-01-21T10:22:15.608Z,101622.91
2023-01-21T10:24:59.225Z,101615.63
2023-01-21T10:27:32.167Z,101622.13
2023-01-21T10:30:09.748Z,101610.59
2023-01-21T10:32:40.643Z,101616.66
2023-01-21T10:35:20.666Z,101618.81
2023-01-21T10:37:58.071Z,101613.50
2023-01-21T10:40:45.029Z,101619.25
2023-01-21T10:43:22.476Z,101628.47
2023-01-21T10:46:01.537Z,101612.84
2023-01-21T10:48:38.910Z,101609.97
2023-01-21T10:51:14.687Z,101618.09
2023-01-21T10:53:50.044Z,101611.75
2023-01-21T10:56:29.240Z,101614.50
2023-01-21T10:59:05.192Z,101618.09
2023-01-21T11:01:37.554Z,101609.25
2023-01-21T11:04:11.835Z,101604.75
2023-01-21T11:06:41.371Z,101606.56
2023-01-21T11:09:17.438Z,101606.31
2023-01-21T11:11:46.493Z,101600.25
2023-01-21T11:14:16.613Z,101609.47
2023-01-21T11:16:48.504Z,101611.69
2023-01-21T11:19:22.912Z,101605.00
2023-01-21T11:22:04.052Z,101610.06
2023-01-21T11:24:42.488Z,101612.13
2023-01-21T11:27:20.523Z,101611.97
2023-01-21T11:29:51.625Z,101612.41
2023-01-21T11:32:22.721Z,101608.50
2023-01-21T11:34:53.645Z,101610.81
2023-01-21T11:37:38.936Z,101616.19
2023-01-21T11:40:14.395Z,101609.63
2023-01-21T11:42:49.005Z,101617.16
2023-01-21T11:45:32.670Z,101616.72
2023-01-21T11:48:03.517Z,101617.47
2023-01-21T11:50:35.680Z,101616.84
2023-01-21T11:53:15.132Z,101621.31
2023-01-21T11:55:46.057Z,101606.94
2023-01-21T11:58:26.041Z,101615.56
2023-01-21T12:00:59.041Z,101612.09
2023-01-21T12:03:31.863Z,101615.69
2023-01-21T12:06:02.216Z,101613.00
2023-01-21T12:08:38.045Z,101602.63
2023-01-21T12:11:09.277Z,101607.38
2023-01-21T12:13:48.069Z,101610.91
2023-01-21T12:16:31.783Z,101616.94
2023-01-21T12:19:20.650Z,101608.09
2023-01-21T12:22:07.150Z,101601.78
2023-01-21T12:24:52.562Z,101612.81
2023-01-21T12:27:31.929Z,101606.13
2023-01-21T12:30:13.929Z,101598.81
2023-01-21T12:32:50.497Z,101605.38
2023-01-21T12:35:31.515Z,101597.88
2023-01-21T12:38:06.269Z,101606.97
2023-01-21T12:40:39.627Z,101613.63
2023-01-21T12:43:19.203Z,101622.13
2023-01-21T12:46:00.338Z,101618.16
2023-01-21T12:48:38.093Z,101619.66
2023-01-21T12:51:11.544Z,101609.38
2023-01-21T12:53:47.704Z,101617.38
2023-01-21T12:56:27.797Z,101610.28
2023-01-21T12:59:01.790Z,101621.19
2023-01-21T13:01:48.118Z,101624.59
2023-01-21T13:04:40.421Z,101617.59
2023-01-21T13:07:24.571Z,101614.59
2023-01-21T13:10:13.407Z,101624.09
2023-01-21T13:12:50.329Z,101626.16
2023-01-21T13:15:26.462Z,101617.31
2023-01-21T13:18:07.464Z,101623.72
2023-01-21T13:20:44.604Z,101624.19
2023-01-21T13:23:23.276Z,101621.16
2023-01-21T13:26:01.283Z,101623.31
2023-01-21T13:28:37.051Z,101614.53
2023-01-21T13:31:18.691Z,101621.34
2023-01-21T13:34:00.307Z,101619.09
2023-01-21T13:36:46.483Z,101627.84
2023-01-21T13:39:28.171Z,101623.31
2023-01-21T13:42:23.573Z,101611.97
2023-01-21T13:45:22.028Z,101614.38
2023-01-21T13:48:19.258Z,101620.28
2023-01-21T13:51:11.515Z,101620.59
2023-01-21T13:54:11.849Z,101615.16
2023-01-21T13:57:04.971Z,101614.22
2023-01-21T13:59:43.802Z,101617.38
2023-01-21T14:02:20.535Z,101614.94
2023-01-21T14:04:55.626Z,101619.03
2023-01-21T14:07:33.295Z,101614.94
2023-01-21T14:10:24.007Z,101622.69
2023-01-21T14:13:34.506Z,101617.38
2023-01-21T14:16:20.668Z,101614.19
2023-01-21T14:19:08.626Z,101615.25
2023-01-21T14:21:49.617Z,101629.38
2023-01-21T14:24:32.923Z,101625.28
2023-01-21T14:27:15.455Z,101619.22
2023-01-21T14:29:48.932Z,101622.25
2023-01-21T14:32:23.354Z,101627.28
2023-01-21T14:35:05.337Z,101623.03
2023-01-21T14:37:44.044Z,101625.47
2023-01-21T14:40:22.594Z,101634.56
2023-01-21T14:43:10.481Z,101630.44
2023-01-21T14:45:57.918Z,101629.22
2023-01-21T14:48:36.476Z,101633.94
2023-01-21T14:51:23.165Z,101631.38
2023-01-21T14:54:01.356Z,101626.97
2023-01-21T14:56:35.057Z,101637.28
2023-01-21T14:59:33.182Z,101635.28
2023-01-21T15:02:21.455Z,101632.13
2023-01-21T15:04:55.609Z,101629.22
2023-01-21T15:07:29.827Z,101630.88
2023-01-21T15:10:02.056Z,101623.63
2023-01-21T15:12:35.479Z,101632.75
2023-01-21T15:15:29.609Z,101631.53
2023-01-21T15:18:24.500Z,101633.78
2023-01-21T15:20:58.083Z,101636.06
2023-01-21T15:23:43.894Z,101632.44
2023-01-21T15:26:38.958Z,101644.09
2023-01-21T15:29:36.951Z,101638.97
2023-01-21T15:32:30.568Z,101648.81
2023-01-21T15:35:03.337Z,101638.97
2023-01-21T15:37:34.202Z,101640.47
2023-01-21T15:40:13.630Z,101638.66
2023-01-21T15:42:51.018Z,101637.44
2023-01-21T15:45:29.123Z,101640.00
2023-01-21T15:48:25.348Z,101638.81
2023-01-21T15:51:04.488Z,101640.03
2023-01-21T15:53:50.022Z,101644.56
2023-01-21T15:56:37.729Z,101652.00
2023-01-21T15:59:30.024Z,101639.09
2023-01-21T16:02:24.544Z,101636.06
2023-01-21T16:05:11.882Z,101643.94
2023-01-21T16:07:54.583Z,101645.00
2023-01-21T16:10:42.282Z,101645.16
2023-01-21T16:13:24.338Z,101647.25
2023-01-21T16:16:10.525Z,101651.22
2023-01-21T16:18:52.463Z,101649.13
2023-01-21T16:21:26.802Z,101636.66
2023-01-21T16:23:59.401Z,101654.47
2023-01-21T16:26:31.851Z,101650.56
2023-01-21T16:29:04.118Z,101644.97
2023-01-21T16:31:46.071Z,101645.72
2023-01-21T16:34:15.327Z,101646.50
2023-01-21T16:36:50.670Z,101659.47
2023-01-21T16:39:20.602Z,101660.69
2023-01-21T16:42:01.791Z,101665.38
2023-01-21T16:44:34.850Z,101666.94
2023-01-21T16:47:10.615Z,101668.47
2023-01-21T16:49:43.462Z,101664.09
2023-01-21T16:52:25.614Z,101670.28
2023-01-21T16:54:57.681Z,101663.59
2023-01-21T16:57:31.542Z,101669.84
2023-01-21T17:00:27.247Z,101671.34
2023-01-21T17:02:56.967Z,101676.63
2023-01-21T17:05:28.179Z,101671.53
2023-01-21T17:08:05.158Z,101672.59
2023-01-21T17:10:37.753Z,101680.91
2023-01-21T17:13:10.647Z,101676.63
2023-01-21T17:15:43.505Z,101678.13
2023-01-21T17:18:22.355Z,101671.69
2023-01-21T17:21:04.549Z,101676.97
2023-01-21T17:23:40.002Z,101669.38
2023-01-21T17:26:16.737Z,101673.66
2023-01-21T17:28:47.688Z,101670.00
2023-01-21T17:31:29.024Z,101663.03
2023-01-21T17:34:04.851Z,101661.22
2023-01-21T17:36:36.402Z,101673.19
2023-01-21T17:39:12.774Z,101680.75
2023-01-21T17:41:46.501Z,101676.38
2023-01-21T17:44:23.196Z,101681.81
2023-01-21T17:46:54.523Z,101674.97
2023-01-21T17:49:29.837Z,101674.81
2023-01-21T17:51:58.646Z,101682.69
2023-01-21T17:54:30.431Z,101678.56
2023-01-21T17:57:01.855Z,101687.09
2023-01-21T17:59:38.246Z,101687.22
2023-01-21T18:02:18.243Z,101696.81
2023-01-21T18:04:48.839Z,101689.22
2023-01-21T18:07:27.701Z,101687.88
2023-01-21T18:10:04.374Z,101692.25
2023-01-21T18:12:37.756Z,101680.41
2023-01-21T18:15:08.968Z,101685.44
2023-01-21T18:17:38.892Z,101692.25
2023-01-21T18:20:16.231Z,101681.19
2023-01-21T18:22:45.533Z,101688.34
2023-01-21T18:25:17.238Z,101684.81
2023-01-21T18:27:47.265Z,101680.00
2023-01-21T18:30:17.161Z,101683.75
2023-01-21T18:32:45.712Z,101679.69
2023-01-21T18:35:20.689Z,101677.84
2023-01-21T18:37:50.626Z,101680.44
2023-01-21T18:40:26.169Z,101687.41
2023-01-21T18:43:10.168Z,101687.09
2023-01-21T18:45:42.417Z,101686.19
2023-01-21T18:48:14.699Z,101687.84
2023-01-21T18:50:43.217Z,101684.81
2023-01-21T18:53:13.709Z,101695.09
2023-01-21T18:55:50.110Z,101689.66
2023-01-21T18:58:18.839Z,101688.75
2023-01-21T19:00:50.172Z,101688.81
2023-01-21T19:03:24.208Z,101696.22
2023-01-21T19:05:55.271Z,101692.44
2023-01-21T19:08:27.698Z,101679.09
2023-01-21T19:10:57.726Z,101686.22
2023-01-21T19:13:26.267Z,101690.44
2023-01-21T19:15:54.583Z,101686.16
2023-01-21T19:18:25.093Z,101688.75
2023-01-21T19:20:54.939Z,101692.06
2023-01-21T19:23:24.640Z,101688.41
2023-01-21T19:25:58.368Z,101683.88
2023-01-21T19:28:29.239Z,101685.69
2023-01-21T19:31:01.198Z,101687.63
2023-01-21T19:33:29.922Z,101686.13
2023-01-21T19:36:06.005Z,101683.06
2023-01-21T19:38:38.583Z,101685.63
2023-01-21T19:41:12.370Z,101682.91
2023-01-21T19:43:41.256Z,101682.59
2023-01-21T19:46:12.665Z,101687.72
2023-01-21T19:48:42.139Z,101686.19
2023-01-21T19:51:12.078Z,101685.75
2023-01-21T19:53:40.395Z,101688.78
2023-01-21T19:56:15.017Z,101685.91
2023-01-21T19:58:43.533Z,101685.91
2023-01-21T20:01:12.804Z,101688.16
2023-01-21T20:03:54.586Z,101684.56
2023-01-21T20:06:29.943Z,101690.50
2023-01-21T20:09:00.554Z,101686.75
2023-01-21T20:11:30.337Z,101687.88
2023-01-21T20:13:58.666Z,101679.00
2023-01-21T20:16:31.404Z,101679.47
2023-01-21T20:19:02.341Z,101681.00
2023-01-21T20:21:31.067Z,101669.34
2023-01-21T20:23:59.906Z,101663.44
2023-01-21T20:26:30.635Z,101674.81
2023-01-21T20:29:03.852Z,101657.22
2023-01-21T20:31:35.390Z,101653.25
2023-01-21T20:34:08.850Z,101653.41
2023-01-21T20:36:40.986Z,101658.88
2023-01-21T20:39:15.004Z,101656.03
2023-01-21T20:41:46.983Z,101657.97
2023-01-21T20:44:15.697Z,101652.81
2023-01-21T20:46:47.210Z,101657.66
2023-01-21T20:49:16.788Z,101658.41
2023-01-21T20:51:47.659Z,101662.66
2023-01-21T20:54:16.967Z,101660.25
2023-01-21T20:56:49.940Z,101666.28
2023-01-21T20:59:19.761Z,101668.13
2023-01-21T21:01:51.581Z,101667.88
2023-01-21T21:04:22.614Z,101653.59
2023-01-21T21:06:51.144Z,101658.00
2023-01-21T21:09:21.903Z,101646.47
2023-01-21T21:11:52.477Z,101657.00
2023-01-21T21:14:25.628Z,101650.50
2023-01-21T21:16:57.023Z,101653.22
2023-01-21T21:19:25.356Z,101643.25
2023-01-21T21:21:54.718Z,101647.78
2023-01-21T21:24:31.135Z,101647.19
2023-01-21T21:27:07.988Z,101653.22
2023-01-21T21:29:37.683Z,101647.03
2023-01-21T21:32:13.937Z,101643.69
2023-01-21T21:34:45.102Z,101641.53
2023-01-21T21:37:14.442Z,101645.75
2023-01-21T21:39:45.883Z,101640.47
2023-01-21T21:42:34.520Z,101633.94
2023-01-21T21:45:12.052Z,101634.91
2023-01-21T21:47:58.010Z,101635.66
2023-01-21T21:50:26.777Z,101634.63
2023-01-21T21:52:55.347Z,101638.06
2023-01-21T21:55:26.590Z,101634.72
2023-01-21T21:57:58.477Z,101641.53
2023-01-21T22:00:31.708Z,101640.78
2023-01-21T22:03:05.542Z,101644.44
2023-01-21T22:05:36.518Z,101637.63
2023-01-21T22:08:05.390Z,101637.19
2023-01-21T22:10:34.014Z,101632.94
2023-01-21T22:13:04.188Z,101623.84
2023-01-21T22:15:33.911Z,101620.22
2023-01-21T22:18:02.225Z,101622.50
2023-01-21T22:20:30.762Z,101620.25
2023-01-21T22:23:01.635Z,101624.44
2023-01-21T22:25:30.312Z,101616.09
2023-01-21T22:28:00.381Z,101612.31
2023-01-21T22:30:30.531Z,101614.59
2023-01-21T22:33:00.097Z,101613.69
2023-01-21T22:35:32.202Z,101609.91
2023-01-21T22:38:00.373Z,101605.19
2023-01-21T22:40:31.863Z,101609.59
2023-01-21T22:43:00.866Z,101602.63
2023-01-21T22:45:33.510Z,101611.44
2023-01-21T22:48:03.710Z,101607.50
2023-01-21T22:50:32.872Z,101600.09
2023-01-21T22:53:02.435Z,101604.19
2023-01-21T22:55:35.473Z,101599.47
2023-01-21T22:58:04.225Z,101588.72
2023-01-21T23:00:38.707Z,101586.31
2023-01-21T23:03:08.587Z,101580.84
2023-01-21T23:05:37.381Z,101589.00
2023-01-21T23:08:07.062Z,101581.13
2023-01-21T23:10:35.745Z,101577.06
2023-01-21T23:13:07.095Z,101580.13
2023-01-21T23:15:37.663Z,101571.78
2023-01-21T23:18:07.126Z,101577.09
2023-01-21T23:20:37.204Z,101573.31
2023-01-21T23:23:06.007Z,101575.72
2023-01-21T23:25:34.450Z,101574.97
2023-01-21T23:28:02.832Z,101575.75
2023-01-21T23:30:31.422Z,101567.72
2023-01-21T23:33:01.309Z,101564.84
2023-01-21T23:35:31.543Z,101556.94
2023-01-21T23:38:07.423Z,101563.94
2023-01-21T23:40:48.618Z,101564.09
2023-01-21T23:43:19.753Z,101561.34
2023-01-21T23:45:50.330Z,101555.25
2023-01-21T23:48:20.126Z,101557.25
2023-01-21T23:50:49.076Z,101553.47
2023-01-21T23:53:17.887Z,101547.88
2023-01-21T23:55:46.334Z,101549.41
2023-01-21T23:58:16.527Z,101544.69
